sensor_id;sensor_type;location;lat;lon;timestamp;temperature;humidity
5938;DHT22;2994;51.220;4.412;2023-06-14T00:00:52;25.82;36.50
5938;DHT22;2994;51.220;4.412;2023-06-14T00:03:18;25.80;36.30
5938;DHT22;2994;51.220;4.412;2023-06-14T00:05:47;25.77;35.96
5938;DHT22;2994;51.220;4.412;2023-06-14T00:08:14;25.73;35.84
5938;DHT22;2994;51.220;4.412;2023-06-14T00:10:40;25.72;35.73
5938;DHT22;2994;51.220;4.412;2023-06-14T00:13:08;25.68;35.53
5938;DHT22;2994;51.220;4.412;2023-06-14T00:15:33;25.66;35.79
5938;DHT22;2994;51.220;4.412;2023-06-14T00:17:59;25.64;35.50
5938;DHT22;2994;51.220;4.412;2023-06-14T00:20:28;25.63;35.61
5938;DHT22;2994;51.220;4.412;2023-06-14T00:22:54;25.62;35.73
5938;DHT22;2994;51.220;4.412;2023-06-14T00:25:23;25.60;35.37
5938;DHT22;2994;51.220;4.412;2023-06-14T00:27:50;25.57;35.43
5938;DHT22;2994;51.220;4.412;2023-06-14T00:30:16;25.53;35.12
5938;DHT22;2994;51.220;4.412;2023-06-14T00:32:41;25.50;35.18
5938;DHT22;2994;51.220;4.412;2023-06-14T00:35:08;25.48;35.16
5938;DHT22;2994;51.220;4.412;2023-06-14T00:37:34;25.45;34.60
5938;DHT22;2994;51.220;4.412;2023-06-14T00:40:00;25.39;34.82
5938;DHT22;2994;51.220;4.412;2023-06-14T00:42:27;25.38;34.86
5938;DHT22;2994;51.220;4.412;2023-06-14T00:44:52;25.35;34.66
5938;DHT22;2994;51.220;4.412;2023-06-14T00:47:18;25.32;34.47
5938;DHT22;2994;51.220;4.412;2023-06-14T00:49:48;25.28;34.28
5938;DHT22;2994;51.220;4.412;2023-06-14T00:52:15;25.24;34.32
5938;DHT22;2994;51.220;4.412;2023-06-14T00:54:42;25.22;34.73
5938;DHT22;2994;51.220;4.412;2023-06-14T00:57:08;25.18;34.35
5938;DHT22;2994;51.220;4.412;2023-06-14T00:59:43;25.15;34.26
5938;DHT22;2994;51.220;4.412;2023-06-14T01:02:09;25.12;33.60
5938;DHT22;2994;51.220;4.412;2023-06-14T01:04:35;25.07;33.72
5938;DHT22;2994;51.220;4.412;2023-06-14T01:07:18;25.02;33.47
5938;DHT22;2994;51.220;4.412;2023-06-14T01:12:23;24.97;34.15
5938;DHT22;2994;51.220;4.412;2023-06-14T01:14:50;24.92;33.44
5938;DHT22;2994;51.220;4.412;2023-06-14T01:17:17;24.89;33.31
5938;DHT22;2994;51.220;4.412;2023-06-14T01:19:43;24.88;33.66
5938;DHT22;2994;51.220;4.412;2023-06-14T01:22:09;24.85;33.69
5938;DHT22;2994;51.220;4.412;2023-06-14T01:24:35;24.82;33.03
5938;DHT22;2994;51.220;4.412;2023-06-14T01:27:02;24.78;33.23
5938;DHT22;2994;51.220;4.412;2023-06-14T01:29:28;24.76;32.95
5938;DHT22;2994;51.220;4.412;2023-06-14T01:31:58;24.70;32.76
5938;DHT22;2994;51.220;4.412;2023-06-14T01:34:24;24.69;33.51
5938;DHT22;2994;51.220;4.412;2023-06-14T01:36:49;24.65;32.93
5938;DHT22;2994;51.220;4.412;2023-06-14T01:39:16;24.64;32.80
5938;DHT22;2994;51.220;4.412;2023-06-14T01:41:43;24.61;32.89
5938;DHT22;2994;51.220;4.412;2023-06-14T01:44:09;24.59;32.89
5938;DHT22;2994;51.220;4.412;2023-06-14T01:46:36;24.57;32.87
5938;DHT22;2994;51.220;4.412;2023-06-14T01:49:01;24.54;32.41
5938;DHT22;2994;51.220;4.412;2023-06-14T01:51:27;24.53;32.58
5938;DHT22;2994;51.220;4.412;2023-06-14T01:53:53;24.47;32.82
5938;DHT22;2994;51.220;4.412;2023-06-14T01:56:18;24.44;32.28
5938;DHT22;2994;51.220;4.412;2023-06-14T01:58:44;24.43;31.99
5938;DHT22;2994;51.220;4.412;2023-06-14T02:01:09;24.39;31.77
5938;DHT22;2994;51.220;4.412;2023-06-14T02:03:36;24.36;31.71
5938;DHT22;2994;51.220;4.412;2023-06-14T02:06:03;24.32;31.80
5938;DHT22;2994;51.220;4.412;2023-06-14T02:08:28;24.29;31.63
5938;DHT22;2994;51.220;4.412;2023-06-14T02:10:54;24.28;31.72
5938;DHT22;2994;51.220;4.412;2023-06-14T02:13:19;24.24;31.61
5938;DHT22;2994;51.220;4.412;2023-06-14T02:15:45;24.21;31.67
5938;DHT22;2994;51.220;4.412;2023-06-14T02:18:10;24.17;31.48
5938;DHT22;2994;51.220;4.412;2023-06-14T02:20:36;24.12;31.54
5938;DHT22;2994;51.220;4.412;2023-06-14T02:23:02;24.10;31.70
5938;DHT22;2994;51.220;4.412;2023-06-14T02:25:27;24.05;31.63
5938;DHT22;2994;51.220;4.412;2023-06-14T02:27:54;24.05;31.76
5938;DHT22;2994;51.220;4.412;2023-06-14T02:30:20;24.03;31.40
5938;DHT22;2994;51.220;4.412;2023-06-14T02:32:46;23.99;31.43
5938;DHT22;2994;51.220;4.412;2023-06-14T02:35:13;23.97;31.45
5938;DHT22;2994;51.220;4.412;2023-06-14T02:37:39;23.95;31.48
5938;DHT22;2994;51.220;4.412;2023-06-14T02:40:05;23.92;31.66
5938;DHT22;2994;51.220;4.412;2023-06-14T02:42:31;23.89;31.46
5938;DHT22;2994;51.220;4.412;2023-06-14T02:44:56;23.86;31.45
5938;DHT22;2994;51.220;4.412;2023-06-14T02:47:22;23.81;31.36
5938;DHT22;2994;51.220;4.412;2023-06-14T02:49:47;23.81;31.57
5938;DHT22;2994;51.220;4.412;2023-06-14T02:52:13;23.83;31.35
5938;DHT22;2994;51.220;4.412;2023-06-14T02:54:38;23.81;31.24
5938;DHT22;2994;51.220;4.412;2023-06-14T02:57:04;23.77;31.12
5938;DHT22;2994;51.220;4.412;2023-06-14T02:59:29;23.76;31.12
5938;DHT22;2994;51.220;4.412;2023-06-14T03:01:55;23.74;31.56
5938;DHT22;2994;51.220;4.412;2023-06-14T03:04:20;23.69;31.30
5938;DHT22;2994;51.220;4.412;2023-06-14T03:06:46;23.69;31.21
5938;DHT22;2994;51.220;4.412;2023-06-14T03:09:15;23.67;31.35
5938;DHT22;2994;51.220;4.412;2023-06-14T03:11:41;23.69;31.10
5938;DHT22;2994;51.220;4.412;2023-06-14T03:14:07;23.64;31.61
5938;DHT22;2994;51.220;4.412;2023-06-14T03:16:33;23.61;31.44
5938;DHT22;2994;51.220;4.412;2023-06-14T03:18:59;23.58;31.39
5938;DHT22;2994;51.220;4.412;2023-06-14T03:21:24;23.56;31.75
5938;DHT22;2994;51.220;4.412;2023-06-14T03:23:51;23.54;31.43
5938;DHT22;2994;51.220;4.412;2023-06-14T03:26:18;23.51;31.44
5938;DHT22;2994;51.220;4.412;2023-06-14T03:28:47;23.49;31.93
5938;DHT22;2994;51.220;4.412;2023-06-14T03:31:13;23.47;31.65
5938;DHT22;2994;51.220;4.412;2023-06-14T03:33:40;23.46;31.77
5938;DHT22;2994;51.220;4.412;2023-06-14T03:36:06;23.45;31.80
5938;DHT22;2994;51.220;4.412;2023-06-14T03:38:34;23.41;31.89
5938;DHT22;2994;51.220;4.412;2023-06-14T03:41:00;23.35;31.78
5938;DHT22;2994;51.220;4.412;2023-06-14T03:43:26;23.37;32.21
5938;DHT22;2994;51.220;4.412;2023-06-14T03:45:52;23.38;32.73
5938;DHT22;2994;51.220;4.412;2023-06-14T03:48:17;23.35;32.49
5938;DHT22;2994;51.220;4.412;2023-06-14T03:50:43;23.30;32.01
5938;DHT22;2994;51.220;4.412;2023-06-14T03:53:10;23.25;32.01
5938;DHT22;2994;51.220;4.412;2023-06-14T03:55:35;23.23;32.08
5938;DHT22;2994;51.220;4.412;2023-06-14T03:58:01;23.18;32.48
5938;DHT22;2994;51.220;4.412;2023-06-14T04:00:26;23.17;32.48
5938;DHT22;2994;51.220;4.412;2023-06-14T04:02:52;23.15;32.39
5938;DHT22;2994;51.220;4.412;2023-06-14T04:05:19;23.15;32.45
5938;DHT22;2994;51.220;4.412;2023-06-14T04:07:47;23.09;32.76
5938;DHT22;2994;51.220;4.412;2023-06-14T04:10:15;23.10;32.70
5938;DHT22;2994;51.220;4.412;2023-06-14T04:12:41;23.10;32.89
5938;DHT22;2994;51.220;4.412;2023-06-14T04:15:07;23.11;32.95
5938;DHT22;2994;51.220;4.412;2023-06-14T04:17:34;23.09;32.82
5938;DHT22;2994;51.220;4.412;2023-06-14T04:20:00;23.11;32.71
5938;DHT22;2994;51.220;4.412;2023-06-14T04:22:26;23.08;32.80
5938;DHT22;2994;51.220;4.412;2023-06-14T04:24:55;23.09;33.31
5938;DHT22;2994;51.220;4.412;2023-06-14T04:27:25;23.08;32.97
5938;DHT22;2994;51.220;4.412;2023-06-14T04:29:54;23.06;33.15
5938;DHT22;2994;51.220;4.412;2023-06-14T04:32:27;23.06;33.09
5938;DHT22;2994;51.220;4.412;2023-06-14T04:34:57;23.02;32.95
5938;DHT22;2994;51.220;4.412;2023-06-14T04:37:24;23.00;33.02
5938;DHT22;2994;51.220;4.412;2023-06-14T04:39:51;23.00;33.67
5938;DHT22;2994;51.220;4.412;2023-06-14T04:42:17;22.98;33.47
5938;DHT22;2994;51.220;4.412;2023-06-14T04:44:46;23.00;34.31
5938;DHT22;2994;51.220;4.412;2023-06-14T04:47:12;23.01;34.23
5938;DHT22;2994;51.220;4.412;2023-06-14T04:49:39;22.99;33.36
5938;DHT22;2994;51.220;4.412;2023-06-14T04:52:06;22.98;33.38
5938;DHT22;2994;51.220;4.412;2023-06-14T04:54:32;23.01;33.54
5938;DHT22;2994;51.220;4.412;2023-06-14T04:56:59;22.99;33.52
5938;DHT22;2994;51.220;4.412;2023-06-14T04:59:24;23.00;34.74
5938;DHT22;2994;51.220;4.412;2023-06-14T05:01:50;22.99;34.73
5938;DHT22;2994;51.220;4.412;2023-06-14T05:04:17;23.00;33.79
5938;DHT22;2994;51.220;4.412;2023-06-14T05:06:43;23.00;34.11
5938;DHT22;2994;51.220;4.412;2023-06-14T05:09:15;23.03;34.95
5938;DHT22;2994;51.220;4.412;2023-06-14T05:11:43;23.03;34.21
5938;DHT22;2994;51.220;4.412;2023-06-14T05:14:10;23.03;33.95
5938;DHT22;2994;51.220;4.412;2023-06-14T05:16:35;23.05;34.02
5938;DHT22;2994;51.220;4.412;2023-06-14T05:19:02;23.06;33.80
5938;DHT22;2994;51.220;4.412;2023-06-14T05:21:28;23.08;33.95
5938;DHT22;2994;51.220;4.412;2023-06-14T05:23:53;23.05;34.13
5938;DHT22;2994;51.220;4.412;2023-06-14T05:26:19;23.08;34.02
5938;DHT22;2994;51.220;4.412;2023-06-14T05:28:44;23.10;33.93
5938;DHT22;2994;51.220;4.412;2023-06-14T05:31:10;23.11;34.49
5938;DHT22;2994;51.220;4.412;2023-06-14T05:33:35;23.11;34.09
5938;DHT22;2994;51.220;4.412;2023-06-14T05:36:01;23.13;34.52
5938;DHT22;2994;51.220;4.412;2023-06-14T05:38:26;23.17;34.90
5938;DHT22;2994;51.220;4.412;2023-06-14T05:40:52;23.20;34.28
5938;DHT22;2994;51.220;4.412;2023-06-14T05:43:18;23.23;34.68
5938;DHT22;2994;51.220;4.412;2023-06-14T05:45:44;23.23;34.39
5938;DHT22;2994;51.220;4.412;2023-06-14T05:48:09;23.28;35.15
5938;DHT22;2994;51.220;4.412;2023-06-14T05:50:35;23.27;34.41
5938;DHT22;2994;51.220;4.412;2023-06-14T05:53:00;23.31;35.68
5938;DHT22;2994;51.220;4.412;2023-06-14T05:55:26;23.35;34.92
5938;DHT22;2994;51.220;4.412;2023-06-14T05:57:51;23.37;34.93
5938;DHT22;2994;51.220;4.412;2023-06-14T06:00:17;23.39;34.60
5938;DHT22;2994;51.220;4.412;2023-06-14T06:02:43;23.43;35.11
5938;DHT22;2994;51.220;4.412;2023-06-14T06:05:12;23.45;35.05
5938;DHT22;2994;51.220;4.412;2023-06-14T06:07:38;23.49;35.37
5938;DHT22;2994;51.220;4.412;2023-06-14T06:10:05;23.53;35.74
5938;DHT22;2994;51.220;4.412;2023-06-14T06:12:31;23.54;35.23
5938;DHT22;2994;51.220;4.412;2023-06-14T06:14:58;23.56;34.96
5938;DHT22;2994;51.220;4.412;2023-06-14T06:17:24;23.58;35.48
5938;DHT22;2994;51.220;4.412;2023-06-14T06:19:50;23.64;35.93
5938;DHT22;2994;51.220;4.412;2023-06-14T06:22:15;23.62;35.15
5938;DHT22;2994;51.220;4.412;2023-06-14T06:24:42;23.68;34.64
5938;DHT22;2994;51.220;4.412;2023-06-14T06:27:07;23.73;36.66
5938;DHT22;2994;51.220;4.412;2023-06-14T06:29:37;23.76;34.69
5938;DHT22;2994;51.220;4.412;2023-06-14T06:32:03;23.80;36.19
5938;DHT22;2994;51.220;4.412;2023-06-14T06:34:29;23.82;36.82
5938;DHT22;2994;51.220;4.412;2023-06-14T06:36:54;23.85;37.03
5938;DHT22;2994;51.220;4.412;2023-06-14T06:39:20;23.87;35.33
5938;DHT22;2994;51.220;4.412;2023-06-14T06:41:46;23.92;35.30
5938;DHT22;2994;51.220;4.412;2023-06-14T06:44:11;23.96;35.84
5938;DHT22;2994;51.220;4.412;2023-06-14T06:46:38;23.97;36.80
5938;DHT22;2994;51.220;4.412;2023-06-14T06:49:05;24.00;37.85
5938;DHT22;2994;51.220;4.412;2023-06-14T06:51:31;24.01;38.21
5938;DHT22;2994;51.220;4.412;2023-06-14T06:53:56;24.05;37.64
5938;DHT22;2994;51.220;4.412;2023-06-14T06:56:22;24.09;37.76
5938;DHT22;2994;51.220;4.412;2023-06-14T06:58:49;24.14;38.28
5938;DHT22;2994;51.220;4.412;2023-06-14T07:01:15;24.19;38.30
5938;DHT22;2994;51.220;4.412;2023-06-14T07:03:41;24.24;39.57
5938;DHT22;2994;51.220;4.412;2023-06-14T07:06:06;24.27;36.49
5938;DHT22;2994;51.220;4.412;2023-06-14T07:08:32;24.31;38.33
5938;DHT22;2994;51.220;4.412;2023-06-14T07:10:57;24.36;38.04
5938;DHT22;2994;51.220;4.412;2023-06-14T07:13:23;24.44;37.38
5938;DHT22;2994;51.220;4.412;2023-06-14T07:15:48;24.46;36.43
5938;DHT22;2994;51.220;4.412;2023-06-14T07:18:13;24.53;39.49
5938;DHT22;2994;51.220;4.412;2023-06-14T07:20:39;24.60;36.51
5938;DHT22;2994;51.220;4.412;2023-06-14T07:23:05;24.61;38.27
5938;DHT22;2994;51.220;4.412;2023-06-14T07:25:30;24.68;38.98
5938;DHT22;2994;51.220;4.412;2023-06-14T07:27:56;24.70;38.08
5938;DHT22;2994;51.220;4.412;2023-06-14T07:30:22;24.75;38.46
5938;DHT22;2994;51.220;4.412;2023-06-14T07:32:54;24.82;38.79
5938;DHT22;2994;51.220;4.412;2023-06-14T07:35:19;24.86;38.42
5938;DHT22;2994;51.220;4.412;2023-06-14T07:37:45;24.93;39.05
5938;DHT22;2994;51.220;4.412;2023-06-14T07:40:12;24.99;39.35
5938;DHT22;2994;51.220;4.412;2023-06-14T07:42:38;25.01;39.81
5938;DHT22;2994;51.220;4.412;2023-06-14T07:45:04;25.07;38.13
5938;DHT22;2994;51.220;4.412;2023-06-14T07:47:30;25.16;38.36
5938;DHT22;2994;51.220;4.412;2023-06-14T07:49:55;25.19;36.94
5938;DHT22;2994;51.220;4.412;2023-06-14T07:52:21;25.25;37.61
5938;DHT22;2994;51.220;4.412;2023-06-14T07:54:46;25.37;35.73
5938;DHT22;2994;51.220;4.412;2023-06-14T07:57:12;25.42;37.50
5938;DHT22;2994;51.220;4.412;2023-06-14T07:59:38;25.46;37.70
5938;DHT22;2994;51.220;4.412;2023-06-14T08:02:04;25.57;37.14
5938;DHT22;2994;51.220;4.412;2023-06-14T08:04:29;25.63;36.68
5938;DHT22;2994;51.220;4.412;2023-06-14T08:06:56;25.79;34.84
5938;DHT22;2994;51.220;4.412;2023-06-14T08:09:21;25.87;35.17
5938;DHT22;2994;51.220;4.412;2023-06-14T08:11:47;25.91;36.86
5938;DHT22;2994;51.220;4.412;2023-06-14T08:14:13;25.97;36.36
5938;DHT22;2994;51.220;4.412;2023-06-14T08:16:38;26.08;34.73
5938;DHT22;2994;51.220;4.412;2023-06-14T08:19:03;26.08;35.49
5938;DHT22;2994;51.220;4.412;2023-06-14T08:21:29;26.19;34.91
5938;DHT22;2994;51.220;4.412;2023-06-14T08:23:55;26.21;33.60
5938;DHT22;2994;51.220;4.412;2023-06-14T08:26:21;26.36;33.38
5938;DHT22;2994;51.220;4.412;2023-06-14T08:28:47;26.39;34.81
5938;DHT22;2994;51.220;4.412;2023-06-14T08:31:12;26.47;35.40
5938;DHT22;2994;51.220;4.412;2023-06-14T08:33:38;26.52;33.68
5938;DHT22;2994;51.220;4.412;2023-06-14T08:36:04;26.58;36.07
5938;DHT22;2994;51.220;4.412;2023-06-14T08:38:30;26.64;34.35
5938;DHT22;2994;51.220;4.412;2023-06-14T08:40:57;26.72;32.58
5938;DHT22;2994;51.220;4.412;2023-06-14T08:43:23;26.69;32.56
5938;DHT22;2994;51.220;4.412;2023-06-14T08:45:51;26.77;32.11
5938;DHT22;2994;51.220;4.412;2023-06-14T08:48:18;26.86;32.64
5938;DHT22;2994;51.220;4.412;2023-06-14T08:50:46;26.93;33.99
5938;DHT22;2994;51.220;4.412;2023-06-14T08:53:14;27.01;34.40
5938;DHT22;2994;51.220;4.412;2023-06-14T08:55:44;27.05;32.72
5938;DHT22;2994;51.220;4.412;2023-06-14T08:58:10;27.13;33.95
5938;DHT22;2994;51.220;4.412;2023-06-14T09:00:39;27.22;31.84
5938;DHT22;2994;51.220;4.412;2023-06-14T09:03:07;27.27;31.19
5938;DHT22;2994;51.220;4.412;2023-06-14T09:05:38;27.37;31.71
5938;DHT22;2994;51.220;4.412;2023-06-14T09:08:04;27.41;31.22
5938;DHT22;2994;51.220;4.412;2023-06-14T09:10:31;27.42;31.38
5938;DHT22;2994;51.220;4.412;2023-06-14T09:13:00;27.35;31.16
5938;DHT22;2994;51.220;4.412;2023-06-14T09:15:25;27.38;31.45
5938;DHT22;2994;51.220;4.412;2023-06-14T09:17:51;27.64;30.93
5938;DHT22;2994;51.220;4.412;2023-06-14T09:20:16;27.50;29.39
5938;DHT22;2994;51.220;4.412;2023-06-14T09:22:45;27.73;29.98
5938;DHT22;2994;51.220;4.412;2023-06-14T09:25:11;27.83;28.49
5938;DHT22;2994;51.220;4.412;2023-06-14T09:27:40;27.74;28.70
5938;DHT22;2994;51.220;4.412;2023-06-14T09:30:09;27.95;27.34
5938;DHT22;2994;51.220;4.412;2023-06-14T09:32:37;28.10;27.62
5938;DHT22;2994;51.220;4.412;2023-06-14T09:35:04;28.16;28.87
5938;DHT22;2994;51.220;4.412;2023-06-14T09:37:31;28.11;29.04
5938;DHT22;2994;51.220;4.412;2023-06-14T09:39:57;28.19;29.56
5938;DHT22;2994;51.220;4.412;2023-06-14T09:42:23;28.38;28.88
5938;DHT22;2994;51.220;4.412;2023-06-14T09:44:51;28.39;28.65
5938;DHT22;2994;51.220;4.412;2023-06-14T09:47:17;28.59;27.15
5938;DHT22;2994;51.220;4.412;2023-06-14T09:49:43;28.65;28.03
5938;DHT22;2994;51.220;4.412;2023-06-14T09:52:14;28.44;27.71
5938;DHT22;2994;51.220;4.412;2023-06-14T09:54:41;28.65;27.14
5938;DHT22;2994;51.220;4.412;2023-06-14T09:57:15;28.73;27.81
5938;DHT22;2994;51.220;4.412;2023-06-14T09:59:45;28.93;28.20
5938;DHT22;2994;51.220;4.412;2023-06-14T10:02:27;29.02;26.37
5938;DHT22;2994;51.220;4.412;2023-06-14T10:05:05;29.00;27.08
5938;DHT22;2994;51.220;4.412;2023-06-14T10:07:52;29.16;25.28
5938;DHT22;2994;51.220;4.412;2023-06-14T10:10:18;29.04;25.51
5938;DHT22;2994;51.220;4.412;2023-06-14T10:12:44;29.06;25.50
5938;DHT22;2994;51.220;4.412;2023-06-14T10:15:19;29.24;25.20
5938;DHT22;2994;51.220;4.412;2023-06-14T10:17:54;29.09;24.30
5938;DHT22;2994;51.220;4.412;2023-06-14T10:20:30;29.29;23.77
5938;DHT22;2994;51.220;4.412;2023-06-14T10:23:11;29.31;24.25
5938;DHT22;2994;51.220;4.412;2023-06-14T10:25:38;29.38;24.99
5938;DHT22;2994;51.220;4.412;2023-06-14T10:28:21;29.46;25.23
5938;DHT22;2994;51.220;4.412;2023-06-14T10:33:33;29.60;24.78
5938;DHT22;2994;51.220;4.412;2023-06-14T10:36:28;29.57;22.58
5938;DHT22;2994;51.220;4.412;2023-06-14T10:39:15;29.56;21.98
5938;DHT22;2994;51.220;4.412;2023-06-14T10:41:42;29.70;22.92
5938;DHT22;2994;51.220;4.412;2023-06-14T10:46:52;29.65;21.91
5938;DHT22;2994;51.220;4.412;2023-06-14T10:49:19;29.30;23.23
5938;DHT22;2994;51.220;4.412;2023-06-14T10:51:49;29.72;22.02
5938;DHT22;2994;51.220;4.412;2023-06-14T10:54:16;29.78;22.34
5938;DHT22;2994;51.220;4.412;2023-06-14T10:56:52;29.66;21.73
5938;DHT22;2994;51.220;4.412;2023-06-14T10:59:19;29.78;22.30
5938;DHT22;2994;51.220;4.412;2023-06-14T11:04:17;29.95;22.20
5938;DHT22;2994;51.220;4.412;2023-06-14T11:06:50;30.01;22.95
5938;DHT22;2994;51.220;4.412;2023-06-14T11:09:46;30.06;21.68
5938;DHT22;2994;51.220;4.412;2023-06-14T11:12:16;29.62;22.21
5938;DHT22;2994;51.220;4.412;2023-06-14T11:14:46;29.88;21.63
5938;DHT22;2994;51.220;4.412;2023-06-14T11:17:12;29.93;22.55
5938;DHT22;2994;51.220;4.412;2023-06-14T11:19:37;29.71;22.21
5938;DHT22;2994;51.220;4.412;2023-06-14T11:22:03;30.04;22.02
5938;DHT22;2994;51.220;4.412;2023-06-14T11:24:29;30.20;21.47
5938;DHT22;2994;51.220;4.412;2023-06-14T11:26:55;30.04;23.55
5938;DHT22;2994;51.220;4.412;2023-06-14T11:29:21;30.30;21.44
5938;DHT22;2994;51.220;4.412;2023-06-14T11:31:47;30.17;22.85
5938;DHT22;2994;51.220;4.412;2023-06-14T11:34:12;29.92;23.82
5938;DHT22;2994;51.220;4.412;2023-06-14T11:36:39;30.51;20.71
5938;DHT22;2994;51.220;4.412;2023-06-14T11:39:06;30.61;21.24
5938;DHT22;2994;51.220;4.412;2023-06-14T11:41:37;30.53;22.25
5938;DHT22;2994;51.220;4.412;2023-06-14T11:44:03;30.65;20.95
5938;DHT22;2994;51.220;4.412;2023-06-14T11:46:28;30.54;22.89
5938;DHT22;2994;51.220;4.412;2023-06-14T11:48:54;30.74;22.05
5938;DHT22;2994;51.220;4.412;2023-06-14T11:51:19;31.01;19.79
5938;DHT22;2994;51.220;4.412;2023-06-14T11:53:46;30.96;20.39
5938;DHT22;2994;51.220;4.412;2023-06-14T11:56:12;30.90;21.47
5938;DHT22;2994;51.220;4.412;2023-06-14T11:58:37;30.98;19.72
5938;DHT22;2994;51.220;4.412;2023-06-14T12:01:03;30.95;19.82
5938;DHT22;2994;51.220;4.412;2023-06-14T12:03:29;30.72;21.80
5938;DHT22;2994;51.220;4.412;2023-06-14T12:06:05;31.30;19.52
5938;DHT22;2994;51.220;4.412;2023-06-14T12:08:36;31.19;19.74
5938;DHT22;2994;51.220;4.412;2023-06-14T12:11:14;31.48;19.73
5938;DHT22;2994;51.220;4.412;2023-06-14T12:13:41;31.51;20.12
5938;DHT22;2994;51.220;4.412;2023-06-14T12:16:07;31.39;21.66
5938;DHT22;2994;51.220;4.412;2023-06-14T12:18:34;31.74;19.04
5938;DHT22;2994;51.220;4.412;2023-06-14T12:21:00;32.01;18.86
5938;DHT22;2994;51.220;4.412;2023-06-14T12:26:09;32.04;19.76
5938;DHT22;2994;51.220;4.412;2023-06-14T12:28:34;32.17;19.24
5938;DHT22;2994;51.220;4.412;2023-06-14T12:31:00;32.16;18.89
5938;DHT22;2994;51.220;4.412;2023-06-14T12:33:25;32.50;17.64
5938;DHT22;2994;51.220;4.412;2023-06-14T12:35:55;32.74;18.41
5938;DHT22;2994;51.220;4.412;2023-06-14T12:38:21;32.82;17.40
5938;DHT22;2994;51.220;4.412;2023-06-14T12:40:46;32.85;17.35
5938;DHT22;2994;51.220;4.412;2023-06-14T12:43:12;33.14;16.06
5938;DHT22;2994;51.220;4.412;2023-06-14T12:45:37;33.09;16.80
5938;DHT22;2994;51.220;4.412;2023-06-14T12:48:03;33.09;17.47
5938;DHT22;2994;51.220;4.412;2023-06-14T12:50:29;33.13;16.66
5938;DHT22;2994;51.220;4.412;2023-06-14T12:52:54;33.37;14.94
5938;DHT22;2994;51.220;4.412;2023-06-14T12:55:19;33.47;16.68
5938;DHT22;2994;51.220;4.412;2023-06-14T12:57:45;33.28;16.07
5938;DHT22;2994;51.220;4.412;2023-06-14T13:00:11;32.76;16.09
5938;DHT22;2994;51.220;4.412;2023-06-14T13:02:38;33.44;14.93
5938;DHT22;2994;51.220;4.412;2023-06-14T13:05:04;33.64;15.16
5938;DHT22;2994;51.220;4.412;2023-06-14T13:07:29;33.57;15.39
5938;DHT22;2994;51.220;4.412;2023-06-14T13:09:55;33.89;14.43
5938;DHT22;2994;51.220;4.412;2023-06-14T13:12:20;34.06;13.60
5938;DHT22;2994;51.220;4.412;2023-06-14T13:14:45;33.90;15.00
5938;DHT22;2994;51.220;4.412;2023-06-14T13:17:11;34.07;14.97
5938;DHT22;2994;51.220;4.412;2023-06-14T13:19:37;34.35;14.08
5938;DHT22;2994;51.220;4.412;2023-06-14T13:22:02;34.23;14.63
5938;DHT22;2994;51.220;4.412;2023-06-14T13:24:28;34.45;13.94
5938;DHT22;2994;51.220;4.412;2023-06-14T13:26:55;34.61;13.52
5938;DHT22;2994;51.220;4.412;2023-06-14T13:29:20;34.49;14.56
5938;DHT22;2994;51.220;4.412;2023-06-14T13:31:46;34.86;12.79
5938;DHT22;2994;51.220;4.412;2023-06-14T13:34:11;34.68;13.05
5938;DHT22;2994;51.220;4.412;2023-06-14T13:36:37;34.94;11.96
5938;DHT22;2994;51.220;4.412;2023-06-14T13:39:02;34.97;12.27
5938;DHT22;2994;51.220;4.412;2023-06-14T13:41:28;35.03;12.24
5938;DHT22;2994;51.220;4.412;2023-06-14T13:43:59;35.10;12.31
5938;DHT22;2994;51.220;4.412;2023-06-14T13:46:25;35.08;12.35
5938;DHT22;2994;51.220;4.412;2023-06-14T13:48:50;35.16;12.88
5938;DHT22;2994;51.220;4.412;2023-06-14T13:51:17;35.22;12.20
5938;DHT22;2994;51.220;4.412;2023-06-14T13:53:45;35.34;11.91
5938;DHT22;2994;51.220;4.412;2023-06-14T13:56:10;35.36;12.94
5938;DHT22;2994;51.220;4.412;2023-06-14T13:58:37;35.23;12.94
5938;DHT22;2994;51.220;4.412;2023-06-14T14:01:03;35.42;11.76
5938;DHT22;2994;51.220;4.412;2023-06-14T14:03:28;35.20;12.91
5938;DHT22;2994;51.220;4.412;2023-06-14T14:05:54;35.44;13.22
5938;DHT22;2994;51.220;4.412;2023-06-14T14:08:19;35.47;12.20
5938;DHT22;2994;51.220;4.412;2023-06-14T14:10:45;35.51;11.12
5938;DHT22;2994;51.220;4.412;2023-06-14T14:13:11;35.45;11.40
5938;DHT22;2994;51.220;4.412;2023-06-14T14:15:37;35.59;11.56
5938;DHT22;2994;51.220;4.412;2023-06-14T14:18:03;35.69;13.13
5938;DHT22;2994;51.220;4.412;2023-06-14T14:20:30;35.72;13.04
5938;DHT22;2994;51.220;4.412;2023-06-14T14:22:56;35.78;11.83
5938;DHT22;2994;51.220;4.412;2023-06-14T14:25:21;35.89;11.99
5938;DHT22;2994;51.220;4.412;2023-06-14T14:27:47;35.94;12.33
5938;DHT22;2994;51.220;4.412;2023-06-14T14:30:13;35.88;11.91
5938;DHT22;2994;51.220;4.412;2023-06-14T14:32:39;36.02;11.16
5938;DHT22;2994;51.220;4.412;2023-06-14T14:35:06;36.04;10.91
5938;DHT22;2994;51.220;4.412;2023-06-14T14:37:31;36.04;11.30
5938;DHT22;2994;51.220;4.412;2023-06-14T14:39:57;36.11;12.80
5938;DHT22;2994;51.220;4.412;2023-06-14T14:42:22;35.99;11.98
5938;DHT22;2994;51.220;4.412;2023-06-14T14:44:48;36.12;12.42
5938;DHT22;2994;51.220;4.412;2023-06-14T14:47:13;36.01;11.78
5938;DHT22;2994;51.220;4.412;2023-06-14T14:49:38;36.06;11.38
5938;DHT22;2994;51.220;4.412;2023-06-14T14:52:04;36.10;12.28
5938;DHT22;2994;51.220;4.412;2023-06-14T14:54:30;36.16;12.17
5938;DHT22;2994;51.220;4.412;2023-06-14T14:56:55;36.29;12.89
5938;DHT22;2994;51.220;4.412;2023-06-14T14:59:21;36.18;11.94
5938;DHT22;2994;51.220;4.412;2023-06-14T15:01:49;36.29;13.02
5938;DHT22;2994;51.220;4.412;2023-06-14T15:04:16;36.45;11.89
5938;DHT22;2994;51.220;4.412;2023-06-14T15:06:41;36.47;11.14
5938;DHT22;2994;51.220;4.412;2023-06-14T15:09:07;36.57;11.67
5938;DHT22;2994;51.220;4.412;2023-06-14T15:11:32;36.59;11.03
5938;DHT22;2994;51.220;4.412;2023-06-14T15:13:58;36.75;11.12
5938;DHT22;2994;51.220;4.412;2023-06-14T15:16:23;36.90;11.03
5938;DHT22;2994;51.220;4.412;2023-06-14T15:18:49;37.32;10.94
5938;DHT22;2994;51.220;4.412;2023-06-14T15:21:14;37.71;10.95
5938;DHT22;2994;51.220;4.412;2023-06-14T15:23:40;38.63;9.72
5938;DHT22;2994;51.220;4.412;2023-06-14T15:26:05;42.02;9.29
5938;DHT22;2994;51.220;4.412;2023-06-14T15:28:31;46.96;6.57
5938;DHT22;2994;51.220;4.412;2023-06-14T15:30:58;50.30;4.04
5938;DHT22;2994;51.220;4.412;2023-06-14T15:33:24;52.75;2.97
5938;DHT22;2994;51.220;4.412;2023-06-14T15:35:49;54.61;1.88
5938;DHT22;2994;51.220;4.412;2023-06-14T15:38:14;56.27;1.19
5938;DHT22;2994;51.220;4.412;2023-06-14T15:40:40;57.59;0.94
5938;DHT22;2994;51.220;4.412;2023-06-14T15:43:05;58.58;0.48
5938;DHT22;2994;51.220;4.412;2023-06-14T15:45:31;59.42;0.69
5938;DHT22;2994;51.220;4.412;2023-06-14T15:47:56;60.22;0.45
5938;DHT22;2994;51.220;4.412;2023-06-14T15:50:22;60.99;-0.15
5938;DHT22;2994;51.220;4.412;2023-06-14T15:52:48;60.21;-1.00
5938;DHT22;2994;51.220;4.412;2023-06-14T15:55:13;54.97;-0.97
5938;DHT22;2994;51.220;4.412;2023-06-14T15:57:38;51.94;0.39
5938;DHT22;2994;51.220;4.412;2023-06-14T16:00:04;49.19;1.67
5938;DHT22;2994;51.220;4.412;2023-06-14T16:02:30;47.05;3.13
5938;DHT22;2994;51.220;4.412;2023-06-14T16:04:55;45.24;3.69
5938;DHT22;2994;51.220;4.412;2023-06-14T16:07:21;43.64;5.76
5938;DHT22;2994;51.220;4.412;2023-06-14T16:09:46;42.37;6.16
5938;DHT22;2994;51.220;4.412;2023-06-14T16:12:12;41.20;6.48